Sequoia Natl Park, California
Current Conditions -  °F | °C
As of 10:35 AM on Wednesday 26 Nov 2014 (Local Time) from KPTV Reporting Station
Clear Clear  
Wind Chill: 59°   Ceiling: Unl
Heat Index: 59°   Visibility: 5mi
Dew Point: 45°   Wind: 6mph
Humidity: 59%   Direction: 250°WSW
Pressure: 30.34"   Gusts: NA
Location:  36.5°N, 118.5°W
Report Text: KPTV 261835Z AUTO 25005KT 5SM CLR 15/07 A3034 RMK AO1
Loading
Personal Weather Stations






























Interactive Weather Map New forecast layout! Learn more

10-Day Weather Forecast

Advertisements
Track Severe Weather on mobile